createdAt,value
2022-09-12T00:00:52.504Z,99.90
2022-09-12T00:03:19.321Z,99.90
2022-09-12T00:05:47.908Z,99.90
2022-09-12T00:08:14.948Z,99.90
2022-09-12T00:10:44.083Z,99.90
2022-09-12T00:13:11.994Z,99.90
2022-09-12T00:15:43.411Z,99.90
2022-09-12T00:18:15.144Z,99.90
2022-09-12T00:20:47.025Z,99.90
2022-09-12T00:23:14.817Z,99.90
2022-09-12T00:25:43.911Z,99.90
2022-09-12T00:28:11.851Z,99.90
2022-09-12T00:30:43.320Z,99.90
2022-09-12T00:33:11.348Z,99.90
2022-09-12T00:35:47.704Z,99.90
2022-09-12T00:38:15.944Z,99.90
2022-09-12T00:40:43.749Z,99.90
2022-09-12T00:43:40.879Z,99.90
2022-09-12T00:46:43.196Z,99.90
2022-09-12T00:49:55.878Z,99.90
2022-09-12T00:52:39.564Z,99.90
2022-09-12T00:55:17.171Z,99.90
2022-09-12T00:57:50.767Z,99.90
2022-09-12T01:00:23.021Z,99.90
2022-09-12T01:02:56.269Z,99.90
2022-09-12T01:05:24.876Z,99.90
2022-09-12T01:07:53.059Z,99.90
2022-09-12T01:10:20.482Z,99.90
2022-09-12T01:12:48.423Z,99.90
2022-09-12T01:15:15.596Z,99.90
2022-09-12T01:18:12.143Z,99.90
2022-09-12T01:20:49.348Z,99.90
2022-09-12T01:24:14.593Z,99.90
2022-09-12T01:30:46.197Z,99.90
2022-09-12T01:33:37.194Z,99.90
2022-09-12T01:36:17.758Z,99.90
2022-09-12T01:38:53.280Z,99.90
2022-09-12T01:41:43.552Z,99.90
2022-09-12T01:44:30.875Z,99.90
2022-09-12T01:47:33.652Z,99.90
2022-09-12T01:51:03.788Z,99.90
2022-09-12T01:54:04.046Z,99.90
2022-09-12T01:57:03.312Z,99.90
2022-09-12T01:59:39.655Z,99.90
2022-09-12T02:02:14.801Z,99.90
2022-09-12T02:05:10.377Z,99.90
2022-09-12T02:07:44.267Z,99.90
2022-09-12T02:10:20.598Z,99.90
2022-09-12T02:13:18.558Z,99.90
2022-09-12T02:16:00.448Z,99.90
2022-09-12T02:18:29.960Z,99.90
2022-09-12T02:20:57.445Z,99.90
2022-09-12T02:23:29.332Z,99.90
2022-09-12T02:26:02.752Z,99.90
2022-09-12T02:28:38.666Z,99.90
2022-09-12T02:31:27.646Z,99.90
2022-09-12T02:34:19.911Z,99.90
2022-09-12T02:37:13.014Z,99.90
2022-09-12T02:39:44.513Z,99.90
2022-09-12T02:42:12.603Z,99.90
2022-09-12T02:48:29.125Z,99.90
2022-09-12T02:50:56.694Z,99.90
2022-09-12T02:53:25.562Z,99.90
2022-09-12T02:55:52.837Z,99.90
2022-09-12T02:58:25.084Z,99.90
2022-09-12T03:01:22.464Z,99.90
2022-09-12T03:04:24.488Z,99.90
2022-09-12T03:07:12.546Z,99.90
2022-09-12T03:10:08.990Z,99.90
2022-09-12T03:13:14.116Z,99.90
2022-09-12T03:16:21.389Z,99.90
2022-09-12T03:19:03.143Z,99.90
2022-09-12T03:22:04.233Z,99.90
2022-09-12T03:24:48.467Z,99.90
2022-09-12T03:27:49.535Z,99.90
2022-09-12T03:30:16.447Z,99.90
2022-09-12T03:32:47.174Z,99.90
2022-09-12T03:35:18.780Z,99.90
2022-09-12T03:37:49.474Z,99.90
2022-09-12T03:40:16.704Z,99.90
2022-09-12T03:42:43.501Z,99.90
2022-09-12T03:45:11.166Z,99.90
2022-09-12T03:47:38.116Z,99.90
2022-09-12T03:50:06.438Z,99.90
2022-09-12T03:52:33.506Z,99.90
2022-09-12T03:55:00.250Z,99.90
2022-09-12T03:57:27.028Z,99.90
2022-09-12T03:59:53.972Z,99.90
2022-09-12T04:02:21.174Z,99.90
2022-09-12T04:04:48.759Z,99.90
2022-09-12T04:07:16.626Z,99.90
2022-09-12T04:09:43.801Z,99.90
2022-09-12T04:12:10.910Z,99.90
2022-09-12T04:14:38.450Z,99.90
2022-09-12T04:17:05.454Z,99.90
2022-09-12T04:19:32.304Z,99.90
2022-09-12T04:21:59.090Z,99.90
2022-09-12T04:24:25.898Z,99.90
2022-09-12T04:26:52.670Z,99.90
2022-09-12T04:29:19.408Z,99.90
2022-09-12T04:31:46.248Z,99.90
2022-09-12T04:34:13.056Z,99.90
2022-09-12T04:36:39.812Z,99.90
2022-09-12T04:39:07.691Z,99.90
2022-09-12T04:41:37.799Z,99.90
2022-09-12T04:44:16.035Z,99.90
2022-09-12T04:46:47.469Z,99.90
2022-09-12T04:49:19.296Z,99.90
2022-09-12T04:51:46.557Z,99.90
2022-09-12T04:54:17.976Z,99.90
2022-09-12T04:56:48.861Z,99.90
2022-09-12T04:59:18.241Z,99.90
2022-09-12T05:01:45.142Z,99.90
2022-09-12T05:04:15.469Z,99.90
2022-09-12T05:06:42.938Z,99.90
2022-09-12T05:09:12.600Z,99.90
2022-09-12T05:14:30.884Z,99.90
2022-09-12T05:17:00.675Z,99.90
2022-09-12T05:19:29.152Z,99.90
2022-09-12T05:21:56.264Z,99.90
2022-09-12T05:24:23.058Z,99.90
2022-09-12T05:26:49.971Z,99.90
2022-09-12T05:29:16.688Z,99.90
2022-09-12T05:31:43.417Z,99.90
2022-09-12T05:34:10.466Z,99.90
2022-09-12T05:36:38.484Z,99.90
2022-09-12T05:39:05.700Z,99.90
2022-09-12T05:41:34.283Z,99.90
2022-09-12T05:44:06.777Z,99.90
2022-09-12T05:46:40.774Z,99.90
2022-09-12T05:49:11.195Z,99.90
2022-09-12T05:51:42.382Z,99.90
2022-09-12T05:54:13.911Z,99.90
2022-09-12T05:56:42.919Z,99.90
2022-09-12T05:59:19.712Z,99.90
2022-09-12T06:01:47.785Z,99.90
2022-09-12T06:04:14.957Z,99.90
2022-09-12T06:06:48.639Z,99.90
2022-09-12T06:09:16.763Z,99.90
2022-09-12T06:11:44.817Z,99.90
2022-09-12T06:14:14.556Z,99.90
2022-09-12T06:16:41.499Z,99.90
2022-09-12T06:19:18.663Z,99.90
2022-09-12T06:21:47.532Z,99.90
2022-09-12T06:24:14.390Z,99.90
2022-09-12T06:26:41.522Z,99.90
2022-09-12T06:29:09.303Z,99.90
2022-09-12T06:31:38.733Z,99.90
2022-09-12T06:34:09.602Z,99.90
2022-09-12T06:36:54.403Z,99.90
2022-09-12T06:39:22.683Z,99.90
2022-09-12T06:41:51.939Z,99.90
2022-09-12T06:44:21.829Z,99.90
2022-09-12T06:46:48.987Z,99.90
2022-09-12T06:49:15.872Z,99.90
2022-09-12T06:51:43.047Z,99.90
2022-09-12T06:54:16.818Z,99.90
2022-09-12T06:56:44.234Z,99.90
2022-09-12T06:59:11.007Z,99.90
2022-09-12T07:01:38.040Z,99.90
2022-09-12T07:04:05.178Z,99.90
2022-09-12T07:06:38.391Z,99.90
2022-09-12T07:09:08.244Z,99.90
2022-09-12T07:11:38.005Z,99.90
2022-09-12T07:14:07.681Z,99.90
2022-09-12T07:16:37.861Z,99.90
2022-09-12T07:19:07.214Z,99.90
2022-09-12T07:21:39.449Z,99.90
2022-09-12T07:24:08.664Z,99.90
2022-09-12T07:26:35.660Z,99.90
2022-09-12T07:31:49.620Z,99.90
2022-09-12T07:34:17.463Z,99.90
2022-09-12T07:36:44.200Z,99.90
2022-09-12T07:39:11.212Z,99.90
2022-09-12T07:41:38.011Z,99.90
2022-09-12T07:44:06.649Z,99.90
2022-09-12T07:46:33.533Z,99.90
2022-09-12T07:49:01.623Z,99.90
2022-09-12T07:51:30.488Z,99.90
2022-09-12T07:54:01.219Z,99.90
2022-09-12T07:56:32.038Z,99.90
2022-09-12T07:59:10.712Z,99.90
2022-09-12T08:01:50.582Z,99.90
2022-09-12T08:04:40.084Z,99.90
2022-09-12T08:07:55.887Z,99.90
2022-09-12T08:10:51.486Z,99.90
2022-09-12T08:13:55.225Z,99.90
2022-09-12T08:16:56.574Z,99.90
2022-09-12T08:19:48.502Z,99.90
2022-09-12T08:22:41.687Z,99.90
2022-09-12T08:25:52.779Z,99.90
2022-09-12T08:28:56.026Z,99.90
2022-09-12T08:31:57.043Z,99.90
2022-09-12T08:34:59.076Z,99.90
2022-09-12T08:38:03.534Z,99.90
2022-09-12T08:40:30.343Z,99.90
2022-09-12T08:44:01.980Z,99.90
2022-09-12T08:46:47.197Z,99.90
2022-09-12T08:49:24.035Z,99.90
2022-09-12T08:51:51.991Z,99.90
2022-09-12T08:54:26.856Z,99.90
2022-09-12T08:57:01.826Z,99.90
2022-09-12T08:59:38.942Z,99.90
2022-09-12T09:02:47.007Z,99.90
2022-09-12T09:06:11.382Z,99.90
2022-09-12T09:09:00.218Z,99.90
2022-09-12T09:11:54.594Z,99.90
2022-09-12T09:15:08.784Z,99.90
2022-09-12T09:17:47.960Z,99.90
2022-09-12T09:20:55.091Z,99.90
2022-09-12T09:23:40.481Z,99.90
2022-09-12T09:26:14.636Z,99.90
2022-09-12T09:28:52.995Z,99.90
2022-09-12T09:31:22.982Z,99.90
2022-09-12T09:33:53.995Z,99.90
2022-09-12T09:36:30.255Z,99.90
2022-09-12T09:39:27.275Z,99.90
2022-09-12T09:42:40.318Z,99.90
2022-09-12T09:45:20.959Z,99.90
2022-09-12T09:48:01.621Z,99.90
2022-09-12T09:50:29.229Z,99.90
2022-09-12T09:52:58.924Z,99.90
2022-09-12T09:55:40.499Z,99.90
2022-09-12T09:58:07.245Z,99.90
2022-09-12T10:00:39.130Z,99.90
2022-09-12T10:03:14.812Z,99.90
2022-09-12T10:06:08.158Z,99.90
2022-09-12T10:08:37.111Z,99.90
2022-09-12T10:11:28.300Z,99.90
2022-09-12T10:13:57.778Z,99.90
2022-09-12T10:16:28.887Z,99.90
2022-09-12T10:18:59.106Z,99.90
2022-09-12T10:21:31.811Z,99.90
2022-09-12T10:24:25.060Z,99.90
2022-09-12T10:27:06.311Z,99.90
2022-09-12T10:29:47.750Z,99.90
2022-09-12T10:32:50.979Z,99.90
2022-09-12T10:35:25.538Z,99.90
2022-09-12T10:38:07.067Z,99.90
2022-09-12T10:40:42.541Z,99.90
2022-09-12T10:43:55.896Z,99.90
2022-09-12T10:46:29.308Z,99.90
2022-09-12T10:49:22.523Z,99.90
2022-09-12T10:51:51.050Z,99.90
2022-09-12T10:54:22.321Z,99.90
2022-09-12T10:57:14.474Z,99.90
2022-09-12T11:00:17.950Z,99.90
2022-09-12T11:10:54.532Z,99.90
2022-09-12T11:14:17.799Z,99.90
2022-09-12T11:17:52.259Z,99.90
2022-09-12T11:24:28.793Z,99.90
2022-09-12T11:27:24.502Z,99.90
2022-09-12T11:30:14.984Z,99.90
2022-09-12T11:33:01.379Z,99.90
2022-09-12T11:35:31.670Z,99.90
2022-09-12T11:38:05.012Z,99.90
2022-09-12T11:40:50.742Z,99.90
2022-09-12T11:43:40.499Z,99.90
2022-09-12T11:46:38.229Z,99.90
2022-09-12T11:49:13.741Z,99.90
2022-09-12T11:51:54.169Z,99.90
2022-09-12T11:55:01.204Z,99.90
2022-09-12T11:57:41.581Z,99.90
2022-09-12T12:00:26.519Z,99.90
2022-09-12T12:03:09.510Z,99.90
2022-09-12T12:06:06.084Z,99.90
2022-09-12T12:08:40.912Z,99.90
2022-09-12T12:11:08.999Z,99.90
2022-09-12T12:13:45.985Z,99.90
2022-09-12T12:16:21.372Z,99.90
2022-09-12T12:18:55.895Z,99.90
2022-09-12T12:21:42.964Z,99.90
2022-09-12T12:24:09.585Z,99.90
2022-09-12T12:26:39.563Z,99.90
2022-09-12T12:29:18.008Z,99.90
2022-09-12T12:32:21.339Z,99.90
2022-09-12T12:34:48.522Z,99.90
2022-09-12T12:37:29.580Z,99.90
2022-09-12T12:40:10.195Z,99.10
2022-09-12T12:42:36.888Z,99.40
2022-09-12T12:45:09.347Z,97.20
2022-09-12T12:47:39.302Z,95.20
2022-09-12T12:50:20.558Z,95.90
2022-09-12T12:52:50.020Z,96.50
2022-09-12T12:55:38.965Z,94.50
2022-09-12T12:58:08.127Z,94.90
2022-09-12T13:00:39.913Z,94.10
2022-09-12T13:03:06.812Z,93.90
2022-09-12T13:05:47.886Z,93.90
2022-09-12T13:08:17.289Z,94.10
2022-09-12T13:11:28.396Z,92.30
